createdAt,value
2022-10-29T04:30:49.915Z,15.70
2022-10-29T04:33:19.020Z,15.80
2022-10-29T04:35:51.438Z,15.70
2022-10-29T04:38:18.361Z,15.70
2022-10-29T04:40:45.391Z,15.70
2022-10-29T04:43:12.360Z,15.60
2022-10-29T04:45:39.329Z,15.60
2022-10-29T04:48:06.724Z,15.50
2022-10-29T04:50:34.468Z,15.50
2022-10-29T04:53:02.251Z,15.50
2022-10-29T04:55:29.359Z,15.50
2022-10-29T04:57:56.664Z,15.40
2022-10-29T05:00:24.183Z,15.40
2022-10-29T05:02:51.798Z,15.40
2022-10-29T05:05:19.673Z,15.40
2022-10-29T05:07:46.996Z,15.40
2022-10-29T05:10:14.284Z,15.40
2022-10-29T05:12:41.217Z,15.40
2022-10-29T05:15:08.280Z,15.40
2022-10-29T05:17:41.169Z,15.40
2022-10-29T05:20:08.598Z,15.40
2022-10-29T05:22:35.516Z,15.40
2022-10-29T05:25:02.451Z,15.40
2022-10-29T05:27:30.235Z,15.40
2022-10-29T05:29:57.166Z,15.40
2022-10-29T05:32:24.348Z,15.40
2022-10-29T05:34:51.336Z,15.40
2022-10-29T05:37:18.279Z,15.40
2022-10-29T05:39:45.232Z,15.40
2022-10-29T05:42:12.194Z,15.30
2022-10-29T05:44:39.116Z,15.20
2022-10-29T05:47:06.249Z,15.20
2022-10-29T05:49:33.175Z,15.10
2022-10-29T05:52:00.098Z,15.10
2022-10-29T05:54:27.056Z,15.10
2022-10-29T05:56:53.999Z,15.00
2022-10-29T05:59:21.148Z,14.90
2022-10-29T06:01:48.317Z,14.90
2022-10-29T06:04:15.348Z,14.90
2022-10-29T06:06:42.283Z,14.80
2022-10-29T06:09:09.468Z,14.80
2022-10-29T06:11:36.391Z,14.80
2022-10-29T06:14:03.308Z,14.70
2022-10-29T06:16:30.368Z,14.60
2022-10-29T06:18:57.293Z,14.60
2022-10-29T06:21:24.255Z,14.60
2022-10-29T06:23:53.297Z,14.60
2022-10-29T06:26:20.720Z,14.60
2022-10-29T06:28:47.657Z,14.60
2022-10-29T06:31:14.580Z,14.60
2022-10-29T06:33:41.512Z,14.50
2022-10-29T06:36:08.556Z,14.60
2022-10-29T06:38:35.517Z,14.60
2022-10-29T06:41:02.523Z,14.60
2022-10-29T06:43:29.525Z,14.70
2022-10-29T06:45:56.600Z,14.70
2022-10-29T06:48:23.531Z,14.70
2022-10-29T06:50:50.774Z,14.70
2022-10-29T06:53:17.995Z,14.70
2022-10-29T06:55:44.932Z,14.70
2022-10-29T06:58:13.104Z,14.70
2022-10-29T07:00:40.825Z,14.70
2022-10-29T07:03:11.757Z,14.70
2022-10-29T07:05:38.789Z,14.70
2022-10-29T07:08:06.157Z,14.70
2022-10-29T07:10:33.526Z,14.70
2022-10-29T07:13:00.888Z,14.70
2022-10-29T07:15:30.676Z,14.70
2022-10-29T07:18:02.122Z,14.70
2022-10-29T07:20:33.604Z,14.70
2022-10-29T07:23:01.399Z,14.70
2022-10-29T07:25:28.922Z,14.80
2022-10-29T07:27:56.411Z,14.80
2022-10-29T07:30:23.622Z,14.90
2022-10-29T07:32:50.593Z,14.90
2022-10-29T07:35:17.520Z,15.00
2022-10-29T07:37:44.469Z,15.10
2022-10-29T07:40:11.742Z,15.10
2022-10-29T07:42:38.672Z,15.10
2022-10-29T07:45:06.011Z,15.10
2022-10-29T07:47:32.985Z,15.10
2022-10-29T07:49:59.961Z,15.10
2022-10-29T07:52:26.917Z,15.10
2022-10-29T07:54:53.912Z,15.10
2022-10-29T07:57:22.381Z,15.10
2022-10-29T07:59:50.406Z,15.10
2022-10-29T08:02:17.480Z,15.20
2022-10-29T08:04:44.457Z,15.30
2022-10-29T08:07:11.433Z,15.40
2022-10-29T08:09:38.370Z,15.50
2022-10-29T08:12:07.142Z,15.50
2022-10-29T08:14:34.192Z,15.60
2022-10-29T08:17:01.112Z,15.60
2022-10-29T08:19:29.817Z,15.60
2022-10-29T08:21:56.960Z,15.60
2022-10-29T08:24:23.884Z,15.60
2022-10-29T08:26:51.253Z,15.70
2022-10-29T08:29:18.205Z,15.70
2022-10-29T08:31:45.177Z,15.70
2022-10-29T08:34:12.095Z,15.80
2022-10-29T08:36:39.046Z,15.80
2022-10-29T08:39:05.969Z,15.90
2022-10-29T08:41:53.177Z,15.90
2022-10-29T08:44:20.224Z,15.90
2022-10-29T08:46:53.651Z,16.00
2022-10-29T08:49:22.269Z,16.00
2022-10-29T08:52:20.147Z,16.10
2022-10-29T08:54:51.424Z,16.20
2022-10-29T08:57:21.481Z,16.30
2022-10-29T08:59:58.863Z,16.30
2022-10-29T09:02:26.022Z,16.30
2022-10-29T09:04:53.004Z,16.40
2022-10-29T09:07:19.995Z,16.40
2022-10-29T09:10:07.253Z,16.40
2022-10-29T09:12:34.172Z,16.40
2022-10-29T09:15:13.617Z,16.50
2022-10-29T09:17:43.950Z,16.60
2022-10-29T09:20:49.216Z,16.70
2022-10-29T09:23:35.237Z,16.70
2022-10-29T09:26:03.537Z,16.80
2022-10-29T09:28:30.496Z,16.80
2022-10-29T09:31:09.459Z,16.90
2022-10-29T09:33:37.187Z,16.90
2022-10-29T09:36:10.592Z,17.00
2022-10-29T09:38:42.216Z,17.10
2022-10-29T09:41:10.360Z,17.20
2022-10-29T09:43:37.293Z,17.20
2022-10-29T09:46:04.214Z,17.30
2022-10-29T09:48:36.807Z,17.30
2022-10-29T09:51:03.743Z,17.40
2022-10-29T09:53:30.737Z,17.50
2022-10-29T09:55:57.670Z,17.50
2022-10-29T09:58:26.092Z,17.60
2022-10-29T10:00:53.580Z,17.60
2022-10-29T10:03:22.752Z,17.70
2022-10-29T10:05:56.835Z,17.80
2022-10-29T10:08:23.804Z,17.80
2022-10-29T10:10:52.505Z,17.90
2022-10-29T10:13:23.164Z,17.90
2022-10-29T10:15:55.661Z,17.90
2022-10-29T10:18:31.666Z,18.00
2022-10-29T10:21:03.540Z,18.10
2022-10-29T10:23:40.547Z,18.10
2022-10-29T10:26:27.119Z,18.10
2022-10-29T10:29:16.396Z,18.20
2022-10-29T10:31:44.470Z,18.20
2022-10-29T10:34:16.299Z,18.20
2022-10-29T10:36:45.857Z,18.30
2022-10-29T10:39:26.778Z,18.30
2022-10-29T10:41:54.840Z,18.30
2022-10-29T10:44:22.280Z,18.40
2022-10-29T10:46:50.897Z,18.40
2022-10-29T10:49:18.824Z,18.50
2022-10-29T10:51:48.612Z,18.50
2022-10-29T10:54:38.699Z,18.60
2022-10-29T10:57:19.473Z,18.60
2022-10-29T10:59:49.415Z,18.60
2022-10-29T11:02:36.665Z,18.70
2022-10-29T11:05:23.117Z,18.70
2022-10-29T11:08:04.444Z,18.70
2022-10-29T11:10:34.659Z,18.70
2022-10-29T11:13:03.729Z,18.70
2022-10-29T11:15:37.725Z,18.80
2022-10-29T11:18:12.409Z,18.80
2022-10-29T11:20:41.676Z,18.90
2022-10-29T11:23:08.588Z,18.90
2022-10-29T11:25:39.860Z,18.90
2022-10-29T11:28:06.787Z,19.00
2022-10-29T11:30:38.788Z,19.10
2022-10-29T11:33:20.390Z,19.10
2022-10-29T11:35:56.049Z,19.10
2022-10-29T11:38:28.652Z,19.20
2022-10-29T11:41:10.152Z,19.20
2022-10-29T11:43:37.151Z,19.30
2022-10-29T11:46:08.807Z,19.40
2022-10-29T11:48:38.612Z,19.40
2022-10-29T11:51:05.772Z,19.50
2022-10-29T11:53:32.707Z,19.60
2022-10-29T11:56:07.065Z,19.60
2022-10-29T11:58:46.791Z,19.70
2022-10-29T12:01:25.876Z,19.70
2022-10-29T12:04:28.219Z,19.70
2022-10-29T12:06:58.065Z,19.70
2022-10-29T12:09:40.169Z,19.80
2022-10-29T12:12:13.078Z,19.80
2022-10-29T12:14:58.690Z,19.90
2022-10-29T12:17:28.464Z,19.90
2022-10-29T12:20:01.183Z,19.90
2022-10-29T12:22:43.227Z,20.00
2022-10-29T12:25:28.323Z,20.00
2022-10-29T12:28:24.392Z,20.10
2022-10-29T12:31:03.914Z,20.10
2022-10-29T12:33:37.849Z,20.10
2022-10-29T12:36:13.824Z,20.20
2022-10-29T12:38:40.788Z,20.20
2022-10-29T12:41:08.092Z,20.20
2022-10-29T12:43:35.825Z,20.30
2022-10-29T12:46:20.480Z,20.30
2022-10-29T12:48:56.733Z,20.30
2022-10-29T12:51:23.648Z,20.40
2022-10-29T12:53:59.570Z,20.40
2022-10-29T12:56:27.385Z,20.40
2022-10-29T12:58:59.619Z,20.50
2022-10-29T13:01:38.379Z,20.60
2022-10-29T13:04:22.432Z,20.60
2022-10-29T13:07:12.692Z,20.60
2022-10-29T13:09:41.956Z,20.60
2022-10-29T13:12:11.052Z,20.70
2022-10-29T13:14:37.951Z,20.70
2022-10-29T13:17:06.545Z,20.70
2022-10-29T13:19:37.907Z,20.80
2022-10-29T13:22:04.885Z,20.80
2022-10-29T13:24:32.333Z,20.80
2022-10-29T13:27:25.192Z,20.90
2022-10-29T13:30:30.732Z,20.90
2022-10-29T13:32:57.930Z,21.00
2022-10-29T13:35:26.815Z,21.00
2022-10-29T13:38:09.144Z,21.00
2022-10-29T13:40:54.057Z,21.00
2022-10-29T13:43:21.430Z,21.10
2022-10-29T13:45:50.227Z,21.10
2022-10-29T13:48:25.384Z,21.10
2022-10-29T13:50:54.331Z,21.20
2022-10-29T13:53:23.202Z,21.20
2022-10-29T13:55:50.471Z,21.20
2022-10-29T13:58:22.804Z,21.20
2022-10-29T14:00:50.049Z,21.30
2022-10-29T14:03:20.790Z,21.30
2022-10-29T14:05:47.741Z,21.40
2022-10-29T14:08:24.838Z,21.40
2022-10-29T14:10:53.277Z,21.50
2022-10-29T14:13:23.639Z,21.50
2022-10-29T14:16:09.355Z,21.50
2022-10-29T14:18:36.295Z,21.50
2022-10-29T14:21:04.997Z,21.50
2022-10-29T14:23:32.405Z,21.50
2022-10-29T14:26:00.476Z,21.50
2022-10-29T14:28:28.113Z,21.50
2022-10-29T14:30:59.560Z,21.50
2022-10-29T14:33:45.713Z,21.40
2022-10-29T14:36:20.471Z,21.40
2022-10-29T14:39:05.314Z,21.40
2022-10-29T14:41:32.344Z,21.30
2022-10-29T14:44:11.407Z,21.30
2022-10-29T14:46:38.661Z,21.30
2022-10-29T14:49:19.493Z,21.30
2022-10-29T14:51:51.768Z,21.30
2022-10-29T14:54:23.750Z,21.20
2022-10-29T14:56:52.883Z,21.30
2022-10-29T14:59:24.940Z,21.30
2022-10-29T15:01:57.004Z,21.20
2022-10-29T15:04:29.346Z,21.20
2022-10-29T15:07:19.697Z,21.20
2022-10-29T15:09:46.731Z,21.20
2022-10-29T15:12:21.264Z,21.10
2022-10-29T15:14:48.215Z,21.10
2022-10-29T15:17:19.622Z,21.10
2022-10-29T15:19:46.976Z,21.00
2022-10-29T15:22:24.736Z,21.00
2022-10-29T15:24:52.467Z,21.00
2022-10-29T15:27:19.628Z,21.00
2022-10-29T15:29:47.810Z,21.00
2022-10-29T15:32:15.957Z,20.90
2022-10-29T15:45:31.349Z,20.80
2022-10-29T15:48:18.316Z,20.70
2022-10-29T15:50:45.758Z,20.70
2022-10-29T15:53:14.203Z,20.60
2022-10-29T15:55:41.532Z,20.60
2022-10-29T15:58:13.139Z,20.50
2022-10-29T16:00:40.297Z,20.50
2022-10-29T16:03:16.118Z,20.40
2022-10-29T16:05:43.976Z,20.40
2022-10-29T16:08:18.712Z,20.40
2022-10-29T16:10:45.669Z,20.30
2022-10-29T16:13:12.707Z,20.30
2022-10-29T16:15:43.203Z,20.30
2022-10-29T16:18:11.269Z,20.20
2022-10-29T16:20:38.257Z,20.20
2022-10-29T16:23:05.183Z,20.10
2022-10-29T16:25:32.107Z,20.10
2022-10-29T16:27:59.469Z,20.10
2022-10-29T16:30:26.756Z,20.00
2022-10-29T16:32:54.282Z,20.00
2022-10-29T16:35:22.440Z,20.00
2022-10-29T16:37:50.040Z,19.90
2022-10-29T16:40:18.094Z,19.90
2022-10-29T16:42:45.307Z,19.90
2022-10-29T16:45:16.744Z,19.80
2022-10-29T16:47:43.672Z,19.80
2022-10-29T16:50:15.116Z,19.80
2022-10-29T16:52:42.112Z,19.70
2022-10-29T16:55:09.477Z,19.70
2022-10-29T16:57:36.610Z,19.70
2022-10-29T17:00:04.595Z,19.70
2022-10-29T17:02:31.530Z,19.60
2022-10-29T17:04:58.447Z,19.60
2022-10-29T17:07:25.416Z,19.60
2022-10-29T17:09:52.406Z,19.50
2022-10-29T17:12:19.496Z,19.40
2022-10-29T17:14:46.423Z,19.40
2022-10-29T17:17:13.424Z,19.30
2022-10-29T17:19:40.356Z,19.30
2022-10-29T17:22:10.460Z,19.20
2022-10-29T17:24:37.514Z,19.20
2022-10-29T17:27:04.587Z,19.20
2022-10-29T17:29:36.103Z,19.20
2022-10-29T17:34:35.719Z,19.30
2022-10-29T17:37:02.883Z,19.30
2022-10-29T17:39:29.917Z,19.20
2022-10-29T17:41:56.909Z,19.20
2022-10-29T17:44:26.270Z,19.20
2022-10-29T17:46:53.671Z,19.10
2022-10-29T17:49:21.406Z,19.10
2022-10-29T17:51:48.370Z,19.10
2022-10-29T17:54:15.817Z,19.00
2022-10-29T17:56:42.851Z,18.90
2022-10-29T17:59:10.036Z,18.90
2022-10-29T18:01:37.079Z,18.90
2022-10-29T18:04:04.682Z,18.90
2022-10-29T18:06:32.051Z,18.90
2022-10-29T18:08:59.924Z,18.90
2022-10-29T18:11:27.247Z,18.90
2022-10-29T18:13:54.234Z,18.90
2022-10-29T18:16:22.058Z,18.90
2022-10-29T18:19:01.635Z,18.80
2022-10-29T18:21:29.728Z,18.80
2022-10-29T18:23:56.773Z,18.80
2022-10-29T18:26:33.990Z,18.70
2022-10-29T18:29:01.998Z,18.70
2022-10-29T18:31:30.503Z,18.60
2022-10-29T18:33:58.468Z,18.50
2022-10-29T18:36:25.654Z,18.50
2022-10-29T18:38:53.660Z,18.40
2022-10-29T18:41:20.686Z,18.30
2022-10-29T18:43:47.740Z,18.30
2022-10-29T18:46:14.736Z,18.20
2022-10-29T18:48:42.853Z,18.20
2022-10-29T18:51:10.961Z,18.20
2022-10-29T18:53:38.574Z,18.30
2022-10-29T18:56:09.595Z,18.30
2022-10-29T18:58:36.659Z,18.30
2022-10-29T19:01:05.261Z,18.30
2022-10-29T19:03:32.245Z,18.30
2022-10-29T19:06:06.314Z,18.30
2022-10-29T19:08:37.400Z,18.30
2022-10-29T19:11:05.168Z,18.30
2022-10-29T19:13:32.494Z,18.30
2022-10-29T19:16:02.820Z,18.30
2022-10-29T19:18:30.499Z,18.30
2022-10-29T19:21:04.378Z,18.30
2022-10-29T19:23:31.351Z,18.20
2022-10-29T19:26:01.832Z,18.20
2022-10-29T19:28:29.373Z,18.20
2022-10-29T19:31:00.599Z,18.20
2022-10-29T19:33:27.548Z,18.20
2022-10-29T19:35:54.468Z,18.10
2022-10-29T19:38:21.403Z,18.00
2022-10-29T19:40:48.478Z,18.00
2022-10-29T19:43:15.459Z,17.90
2022-10-29T19:45:42.451Z,17.80
2022-10-29T19:48:09.384Z,17.80
2022-10-29T19:50:36.844Z,17.70
2022-10-29T19:53:03.873Z,17.60
2022-10-29T19:55:31.159Z,17.60
2022-10-29T19:57:58.157Z,17.50
2022-10-29T20:00:25.083Z,17.50
2022-10-29T20:02:53.106Z,17.50
2022-10-29T20:05:20.529Z,17.60
2022-10-29T20:07:49.086Z,17.60
2022-10-29T20:10:16.860Z,17.60
2022-10-29T20:12:43.969Z,17.70
2022-10-29T20:15:12.063Z,17.60
2022-10-29T20:17:38.992Z,17.70
2022-10-29T20:20:06.305Z,17.60
2022-10-29T20:22:33.284Z,17.60
2022-10-29T20:25:00.301Z,17.60
2022-10-29T20:27:27.219Z,17.60
2022-10-29T20:29:54.132Z,17.60
2022-10-29T20:32:21.108Z,17.60
2022-10-29T20:34:48.028Z,17.60
2022-10-29T20:37:15.134Z,17.60
2022-10-29T20:39:42.056Z,17.60
2022-10-29T20:42:08.981Z,17.60
2022-10-29T20:44:35.924Z,17.60
2022-10-29T20:47:02.891Z,17.60
2022-10-29T20:49:29.897Z,17.50
2022-10-29T20:51:56.814Z,17.50
2022-10-29T20:54:23.896Z,17.40
2022-10-29T20:56:50.817Z,17.40
2022-10-29T20:59:17.788Z,17.30
2022-10-29T21:01:45.008Z,17.30
2022-10-29T21:04:12.051Z,17.30
2022-10-29T21:06:38.999Z,17.30
2022-10-29T21:09:07.105Z,17.30
2022-10-29T21:11:34.055Z,17.20
2022-10-29T21:14:01.043Z,17.20
2022-10-29T21:16:28.937Z,17.20
2022-10-29T21:18:57.216Z,17.10
2022-10-29T21:21:24.497Z,17.10
2022-10-29T21:23:51.418Z,17.10
2022-10-29T21:26:22.351Z,17.00
2022-10-29T21:28:49.958Z,17.00
2022-10-29T21:31:17.319Z,16.90
2022-10-29T21:33:44.384Z,16.80
2022-10-29T21:36:14.533Z,16.70
2022-10-29T21:38:41.460Z,16.70
2022-10-29T21:41:08.697Z,16.60
2022-10-29T21:43:35.624Z,16.60
2022-10-29T21:46:02.676Z,16.60
2022-10-29T21:48:29.664Z,16.60
2022-10-29T21:51:00.885Z,16.60
2022-10-29T21:53:27.989Z,16.50
2022-10-29T21:55:58.603Z,16.50
2022-10-29T21:58:26.052Z,16.50
2022-10-29T22:01:01.085Z,16.50
2022-10-29T22:03:29.833Z,16.50
2022-10-29T22:06:06.666Z,16.60
2022-10-29T22:08:34.384Z,16.60
2022-10-29T22:11:01.615Z,16.70
2022-10-29T22:13:28.656Z,16.70
2022-10-29T22:15:55.828Z,16.70
2022-10-29T22:18:23.230Z,16.70
2022-10-29T22:20:50.183Z,16.70
2022-10-29T22:25:50.645Z,16.60
2022-10-29T22:28:17.648Z,16.60
2022-10-29T22:30:44.609Z,16.60
2022-10-29T22:33:11.547Z,16.60
2022-10-29T22:35:38.556Z,16.70
2022-10-29T22:38:05.482Z,16.70
2022-10-29T22:40:32.400Z,16.60
2022-10-29T22:42:59.795Z,16.60
2022-10-29T22:45:26.938Z,16.50
2022-10-29T22:47:53.909Z,16.50
2022-10-29T22:50:20.837Z,16.40
2022-10-29T22:52:47.761Z,16.50
2022-10-29T22:55:15.716Z,16.40
2022-10-29T22:57:42.672Z,16.50
2022-10-29T23:00:09.989Z,16.50
2022-10-29T23:02:36.973Z,16.50
2022-10-29T23:05:04.243Z,16.50
2022-10-29T23:09:59.109Z,16.40
2022-10-29T23:12:26.036Z,16.40
2022-10-29T23:14:52.963Z,16.40
2022-10-29T23:17:19.889Z,16.40
2022-10-29T23:19:46.859Z,16.40
2022-10-29T23:24:45.648Z,16.20
2022-10-29T23:27:12.571Z,16.20
2022-10-29T23:29:39.545Z,16.10
